OIII Airport Information

Runway Information
Runway 09 Length 1554 ft width 130 ft
Elevation 0 ft Threshold 0 ft Heading 89
Runway 27 Length 1554 ft Width 130 ft
Elevation 0 ft Threshold 0 ft Heading 269
Runway 11L Length 13098 ft width 148 ft
Elevation 3962 ft Threshold 0 ft Heading 109
Runway 29R Length 13098 ft Width 148 ft
Elevation 3797 ft Threshold 0 ft Heading 289
Runway 11R Length 13248 ft width 197 ft
Elevation 3949 ft Threshold 3075 ft Heading 109
Runway 29L Length 13248 ft Width 197 ft
Elevation 3794 ft Threshold 0 ft Heading 289
Airport Frequencies
Type APP Name APP Frequency 119.7 MHZ
Type ATIS Name ATIS Frequency 128 MHZ
Type GND Name GND Frequency 121.7 MHZ
Type TWR Name TWR Frequency 118.1 MHZ
Airport Navaids
Type TACAN Name Tehran Frequency 113300 KHZ
Type VOR-DME Name Tehran Frequency 115300 KHZ
Airport Weather Information & NOTAM
ADDS - METARS form results

(0351 UTC 18 January 2022)
Data provider http://aviationweather.gov/metar/data/
 
METAR text: OIII 180330Z 28016KT 9999 FEW030CB SCT035 BKN090 03/M05 Q1012 A9290
Conditions at: OIII (TEHRAN/MEHRABAD , IR) observed 0330 UTC 18 January 2022
Temperature: 3.0°C (37°F)
Dewpoint: -5.0°C (23°F) [RH = 56%]
Pressure (altimeter): 29.88 inches Hg (1012.0 mb)
Winds: from the W (280 degrees) at 18 MPH (16 knots; 8.2 m/s)
Visibility: 6 or more miles (10+ km)
Ceiling: 9000 feet AGL
Clouds: few clouds at 3000 feet AGL
scattered clouds at 3500 feet AGL
broken clouds at 9000 feet AGL
Weather: no significant weather observed at this time

METAR text: OIII 180320Z 28016KT 9999 FEW030CB SCT035 BKN090 03/M05 Q1012 A9290
Conditions at: OIII (TEHRAN/MEHRABAD , IR) observed 0320 UTC 18 January 2022
Temperature: 3.0°C (37°F)
Dewpoint: -5.0°C (23°F) [RH = 56%]
Pressure (altimeter): 29.88 inches Hg (1012.0 mb)
Winds: from the W (280 degrees) at 18 MPH (16 knots; 8.2 m/s)
Visibility: 6 or more miles (10+ km)
Ceiling: 9000 feet AGL
Clouds: few clouds at 3000 feet AGL
scattered clouds at 3500 feet AGL
broken clouds at 9000 feet AGL
Weather: no significant weather observed at this time

METAR text: OIII 180300Z 29016KT 9999 SCT035 BKN090 03/M05 Q1012 A9289 NOSIG
Conditions at: OIII (TEHRAN/MEHRABAD , IR) observed 0300 UTC 18 January 2022
Temperature: 3.0°C (37°F)
Dewpoint: -5.0°C (23°F) [RH = 56%]
Pressure (altimeter): 29.88 inches Hg (1012.0 mb)
Winds: from the WNW (290 degrees) at 18 MPH (16 knots; 8.2 m/s)
Visibility: 6 or more miles (10+ km)
Ceiling: 9000 feet AGL
Clouds: scattered clouds at 3500 feet AGL
broken clouds at 9000 feet AGL
Weather: no significant weather observed at this time

Forecast for: OIII (TEHRAN/MEHRABAD , IR)
Text: TAF OIII 172310Z 1800/1906 28008KT 7000 FEW030CB SCT035 BKN100
Forecast period: 0000 to 0600 UTC 18 January 2022
Forecast type: FROM: standard forecast or significant change
Winds: from the W (280 degrees) at 9 MPH (8 knots; 4.1 m/s)
Visibility: 4 miles (7 km)
Ceiling: 10000 feet AGL
Clouds: few clouds at 3000 feet AGL
scattered clouds at 3500 feet AGL
broken clouds at 10000 feet AGL
Weather: no significant weather forecast for this period
Text: TEMPO 1800/1805 28018KT 3000 SNRA/SN BR FEW030CB SCT035 OVC100
Forecast period: 0000 to 0500 UTC 18 January 2022
Forecast type: TEMPORARY: The following changes expected for less than half the time period
Winds: from the W (280 degrees) at 21 MPH (18 knots; 9.3 m/s)
Visibility: 1.86 miles (2.99 km)
Ceiling: 10000 feet AGL
Clouds: few clouds at 3000 feet AGL
scattered clouds at 3500 feet AGL
overcast cloud deck at 10000 feet AGL
Weather: SN SN RA  (moderate snow, moderate snow, moderate rain)
Text: BECMG 1806/1808 FEW035 SCT100
Forecast period: 0600 UTC 18 January 2022 to 0600 UTC 19 January 2022
Forecast type: BECOMING: Conditions expected to become as follows by 0800 UTC 18 January 2022
Winds: from the W (280 degrees) at 9 MPH (8 knots; 4.1 m/s)
Visibility: 4 miles (7 km)
Ceiling: at least 12,000 feet AGL
Clouds: few clouds at 3500 feet AGL
scattered clouds at 10000 feet AGL
Weather: no significant weather forecast for this period
Text: TEMPO 1808/1815 27016G26KT
Forecast period: 0800 to 1500 UTC 18 January 2022
Forecast type: TEMPORARY: The following changes expected for less than half the time period
Winds: from the W (270 degrees) at 18 MPH (16 knots; 8.2 m/s)
gusting to 30 MPH (26 knots; 13.4 m/s)
Visibility: missing
Ceiling: unknown
Clouds: missing
Weather: no significant weather forecast for this period